Briefing drone pour Saint-vallier

Rechercher une autre localisation

Conditions de vol :


Nous sommes le : Mardi 25 janvier 2022
Il est 11:32 UTC (12:32 LT)

Lever de soleil : 06:41 UTC (07:41 LT)
Coucher de soleil : 17:04 UTC (18:04 LT)

Météo

L'essentiel des conditions de vol

VIGILANCE MÉTÉO FRANCE - Drôme (26)
Pas de vigilances particulieres
CARTES DES FRONTS
METAR de LFLU
LFLU 251130Z AUTO VRB02KT 9000 NSC 04/M00 Q1033

Date d'émission: 25/01/2022
Heure d'émission: 11:30 UTC
Vent: Variable 2 KT (4 km/h)
Visibilité horizontale: 9000 m
Plafond : Pas de nuages significatifs (NSC)
Température: 4 °C
Point de rosée: 0 °C
Humidité: 75%
Pression (QNH): 1033 hPa
Prévision 24h pour Valence (17 km)
Vent : 10° pour 3 KT (10 km/h)
Temperature Maxi: 0 °C
Temperature Min: 0 °C
Humidité : 85%
Condition : Ciel dégagé



Warning: count(): Parameter must be an array or an object that implements Countable in /homepages/6/d509196549/htdocs/droneoxygene/briefing.php on line 743
WEBCAM POUR SAINT-VALLIER

Réglementation

Voler en sécurité

CARTES AERONAUTIQUE 1/500.000
CARTES VAC (LFLU)
SUP AIP




Chargement des AIP...
NOTAM (SAINT-VALLIER + Terrain à proximité / FIR )




Chargement des NOTAMS...
CONTACT PREFECTURE 26
Drôme (26) : ddt-satem@drome.gouv.fr


Avertissement : Les données mises à disposition sont indicatives. Oxygène Drone ne pourra être tenu responsable de dégâts causés aux biens et aux personnes.